sensor_id;sensor_type;location;lat;lon;timestamp;P1;durP1;ratioP1;P2;durP2;ratioP2
62654;SDS011;48717;55.556;37.816;2022-11-23T00:00:40;27.95;;;7.43;;
62654;SDS011;48717;55.556;37.816;2022-11-23T00:03:11;48.90;;;7.50;;
62654;SDS011;48717;55.556;37.816;2022-11-23T00:05:41;29.77;;;7.57;;
62654;SDS011;48717;55.556;37.816;2022-11-23T00:08:08;36.10;;;6.90;;
62654;SDS011;48717;55.556;37.816;2022-11-23T00:10:35;91.82;;;7.90;;
62654;SDS011;48717;55.556;37.816;2022-11-23T00:13:02;36.35;;;7.10;;
62654;SDS011;48717;55.556;37.816;2022-11-23T00:15:29;32.47;;;6.55;;
62654;SDS011;48717;55.556;37.816;2022-11-23T00:17:57;28.55;;;6.63;;
62654;SDS011;48717;55.556;37.816;2022-11-23T00:20:28;26.17;;;6.47;;
62654;SDS011;48717;55.556;37.816;2022-11-23T00:22:55;45.83;;;6.88;;
62654;SDS011;48717;55.556;37.816;2022-11-23T00:25:22;36.55;;;6.43;;
62654;SDS011;48717;55.556;37.816;2022-11-23T00:27:49;22.77;;;6.63;;
62654;SDS011;48717;55.556;37.816;2022-11-23T00:30:16;23.48;;;4.90;;
62654;SDS011;48717;55.556;37.816;2022-11-23T00:32:43;21.40;;;6.18;;
62654;SDS011;48717;55.556;37.816;2022-11-23T00:35:10;21.55;;;5.68;;
62654;SDS011;48717;55.556;37.816;2022-11-23T00:37:37;31.73;;;6.30;;
62654;SDS011;48717;55.556;37.816;2022-11-23T00:40:04;21.83;;;6.05;;
62654;SDS011;48717;55.556;37.816;2022-11-23T00:42:32;22.23;;;6.00;;
62654;SDS011;48717;55.556;37.816;2022-11-23T00:45:03;25.73;;;6.47;;
62654;SDS011;48717;55.556;37.816;2022-11-23T00:47:31;27.38;;;6.28;;
62654;SDS011;48717;55.556;37.816;2022-11-23T00:49:58;22.45;;;6.63;;
62654;SDS011;48717;55.556;37.816;2022-11-23T00:52:25;22.55;;;6.40;;
62654;SDS011;48717;55.556;37.816;2022-11-23T00:54:52;18.45;;;6.55;;
62654;SDS011;48717;55.556;37.816;2022-11-23T00:57:19;19.83;;;5.45;;
62654;SDS011;48717;55.556;37.816;2022-11-23T00:59:46;19.98;;;5.20;;
62654;SDS011;48717;55.556;37.816;2022-11-23T01:02:13;17.75;;;4.70;;
62654;SDS011;48717;55.556;37.816;2022-11-23T01:04:40;14.57;;;4.78;;
62654;SDS011;48717;55.556;37.816;2022-11-23T01:07:07;17.30;;;5.03;;
62654;SDS011;48717;55.556;37.816;2022-11-23T01:09:38;21.65;;;5.13;;
62654;SDS011;48717;55.556;37.816;2022-11-23T01:12:08;14.57;;;4.55;;
62654;SDS011;48717;55.556;37.816;2022-11-23T01:14:39;18.05;;;4.57;;
62654;SDS011;48717;55.556;37.816;2022-11-23T01:17:07;9.90;;;3.85;;
62654;SDS011;48717;55.556;37.816;2022-11-23T01:19:35;11.13;;;4.00;;
62654;SDS011;48717;55.556;37.816;2022-11-23T01:22:05;16.03;;;4.20;;
62654;SDS011;48717;55.556;37.816;2022-11-23T01:24:32;13.57;;;3.92;;
62654;SDS011;48717;55.556;37.816;2022-11-23T01:26:59;14.45;;;4.10;;
62654;SDS011;48717;55.556;37.816;2022-11-23T01:29:29;12.35;;;4.32;;
62654;SDS011;48717;55.556;37.816;2022-11-23T01:31:59;14.82;;;3.90;;
62654;SDS011;48717;55.556;37.816;2022-11-23T01:34:26;13.10;;;4.38;;
62654;SDS011;48717;55.556;37.816;2022-11-23T01:36:56;16.48;;;4.30;;
62654;SDS011;48717;55.556;37.816;2022-11-23T01:41:54;12.95;;;4.13;;
62654;SDS011;48717;55.556;37.816;2022-11-23T01:44:22;15.90;;;4.18;;
62654;SDS011;48717;55.556;37.816;2022-11-23T01:46:56;16.40;;;5.05;;
62654;SDS011;48717;55.556;37.816;2022-11-23T01:49:29;14.98;;;4.15;;
62654;SDS011;48717;55.556;37.816;2022-11-23T01:52:01;18.27;;;4.57;;
62654;SDS011;48717;55.556;37.816;2022-11-23T01:57:36;18.90;;;4.18;;
62654;SDS011;48717;55.556;37.816;2022-11-23T02:00:07;20.33;;;4.75;;
62654;SDS011;48717;55.556;37.816;2022-11-23T02:02:44;27.33;;;4.70;;
62654;SDS011;48717;55.556;37.816;2022-11-23T02:05:20;24.40;;;4.72;;
62654;SDS011;48717;55.556;37.816;2022-11-23T02:07:50;18.48;;;4.55;;
62654;SDS011;48717;55.556;37.816;2022-11-23T02:10:18;16.10;;;4.78;;
62654;SDS011;48717;55.556;37.816;2022-11-23T02:12:48;16.30;;;4.28;;
62654;SDS011;48717;55.556;37.816;2022-11-23T02:15:35;15.52;;;3.75;;
62654;SDS011;48717;55.556;37.816;2022-11-23T02:18:05;13.60;;;3.58;;
62654;SDS011;48717;55.556;37.816;2022-11-23T02:20:40;11.40;;;3.20;;
62654;SDS011;48717;55.556;37.816;2022-11-23T02:23:15;13.13;;;4.28;;
62654;SDS011;48717;55.556;37.816;2022-11-23T02:26:00;18.98;;;5.20;;
62654;SDS011;48717;55.556;37.816;2022-11-23T02:28:33;20.42;;;6.43;;
62654;SDS011;48717;55.556;37.816;2022-11-23T02:31:05;23.38;;;7.88;;
62654;SDS011;48717;55.556;37.816;2022-11-23T02:33:32;30.38;;;8.23;;
62654;SDS011;48717;55.556;37.816;2022-11-23T02:35:59;23.00;;;7.82;;
62654;SDS011;48717;55.556;37.816;2022-11-23T02:38:29;28.92;;;9.32;;
62654;SDS011;48717;55.556;37.816;2022-11-23T02:40:59;28.23;;;6.72;;
62654;SDS011;48717;55.556;37.816;2022-11-23T02:43:26;28.92;;;7.35;;
62654;SDS011;48717;55.556;37.816;2022-11-23T02:45:58;25.27;;;7.55;;
62654;SDS011;48717;55.556;37.816;2022-11-23T02:48:29;26.30;;;6.32;;
62654;SDS011;48717;55.556;37.816;2022-11-23T02:50:56;21.00;;;6.95;;
62654;SDS011;48717;55.556;37.816;2022-11-23T02:53:23;33.70;;;6.93;;
62654;SDS011;48717;55.556;37.816;2022-11-23T02:55:52;19.83;;;6.22;;
62654;SDS011;48717;55.556;37.816;2022-11-23T02:58:19;29.23;;;7.15;;
62654;SDS011;48717;55.556;37.816;2022-11-23T03:00:46;34.83;;;7.53;;
62654;SDS011;48717;55.556;37.816;2022-11-23T03:03:18;26.95;;;7.00;;
62654;SDS011;48717;55.556;37.816;2022-11-23T03:05:45;27.50;;;6.93;;
62654;SDS011;48717;55.556;37.816;2022-11-23T03:08:12;32.13;;;7.47;;
62654;SDS011;48717;55.556;37.816;2022-11-23T03:10:41;30.23;;;7.22;;
62654;SDS011;48717;55.556;37.816;2022-11-23T03:13:08;23.10;;;7.10;;
62654;SDS011;48717;55.556;37.816;2022-11-23T03:15:37;26.23;;;7.13;;
62654;SDS011;48717;55.556;37.816;2022-11-23T03:18:04;36.80;;;7.50;;
62654;SDS011;48717;55.556;37.816;2022-11-23T03:20:32;23.98;;;7.22;;
62654;SDS011;48717;55.556;37.816;2022-11-23T03:22:59;36.15;;;7.50;;
62654;SDS011;48717;55.556;37.816;2022-11-23T03:25:26;30.83;;;6.53;;
62654;SDS011;48717;55.556;37.816;2022-11-23T03:27:55;26.20;;;6.57;;
62654;SDS011;48717;55.556;37.816;2022-11-23T03:30:22;29.55;;;6.38;;
62654;SDS011;48717;55.556;37.816;2022-11-23T03:32:50;23.67;;;6.88;;
62654;SDS011;48717;55.556;37.816;2022-11-23T03:35:18;45.25;;;8.15;;
62654;SDS011;48717;55.556;37.816;2022-11-23T03:38:15;282.48;;;16.83;;
62654;SDS011;48717;55.556;37.816;2022-11-23T03:40:43;34.17;;;7.53;;
62654;SDS011;48717;55.556;37.816;2022-11-23T03:43:18;33.22;;;6.65;;
62654;SDS011;48717;55.556;37.816;2022-11-23T03:45:45;36.20;;;7.57;;
62654;SDS011;48717;55.556;37.816;2022-11-23T03:48:13;57.00;;;8.48;;
62654;SDS011;48717;55.556;37.816;2022-11-23T03:50:41;30.33;;;6.63;;
62654;SDS011;48717;55.556;37.816;2022-11-23T03:53:09;20.65;;;5.88;;
62654;SDS011;48717;55.556;37.816;2022-11-23T03:55:37;32.88;;;7.55;;
62654;SDS011;48717;55.556;37.816;2022-11-23T03:58:04;24.65;;;6.80;;
62654;SDS011;48717;55.556;37.816;2022-11-23T04:00:34;36.90;;;7.43;;
62654;SDS011;48717;55.556;37.816;2022-11-23T04:03:02;65.40;;;8.52;;
62654;SDS011;48717;55.556;37.816;2022-11-23T04:05:47;45.42;;;10.23;;
62654;SDS011;48717;55.556;37.816;2022-11-23T04:08:33;111.97;;;10.73;;
62654;SDS011;48717;55.556;37.816;2022-11-23T04:11:05;58.28;;;11.75;;
62654;SDS011;48717;55.556;37.816;2022-11-23T04:13:37;73.60;;;12.50;;
62654;SDS011;48717;55.556;37.816;2022-11-23T04:16:06;117.10;;;14.25;;
62654;SDS011;48717;55.556;37.816;2022-11-23T04:18:35;65.65;;;12.05;;
62654;SDS011;48717;55.556;37.816;2022-11-23T04:21:03;101.43;;;13.07;;
62654;SDS011;48717;55.556;37.816;2022-11-23T04:23:30;65.18;;;12.30;;
62654;SDS011;48717;55.556;37.816;2022-11-23T04:25:57;55.78;;;10.63;;
62654;SDS011;48717;55.556;37.816;2022-11-23T04:28:24;89.03;;;12.13;;
62654;SDS011;48717;55.556;37.816;2022-11-23T04:30:52;53.63;;;11.02;;
62654;SDS011;48717;55.556;37.816;2022-11-23T04:33:19;65.90;;;11.25;;
62654;SDS011;48717;55.556;37.816;2022-11-23T04:35:46;48.58;;;9.65;;
62654;SDS011;48717;55.556;37.816;2022-11-23T04:38:13;48.63;;;9.02;;
62654;SDS011;48717;55.556;37.816;2022-11-23T04:40:41;42.63;;;9.25;;
62654;SDS011;48717;55.556;37.816;2022-11-23T04:43:09;47.20;;;9.93;;
62654;SDS011;48717;55.556;37.816;2022-11-23T04:45:38;31.65;;;8.43;;
62654;SDS011;48717;55.556;37.816;2022-11-23T04:48:16;48.03;;;8.95;;
62654;SDS011;48717;55.556;37.816;2022-11-23T04:50:44;45.55;;;9.48;;
62654;SDS011;48717;55.556;37.816;2022-11-23T04:53:19;53.75;;;9.98;;
62654;SDS011;48717;55.556;37.816;2022-11-23T04:55:46;33.80;;;8.30;;
62654;SDS011;48717;55.556;37.816;2022-11-23T04:58:15;59.65;;;10.38;;
62654;SDS011;48717;55.556;37.816;2022-11-23T05:00:48;35.45;;;9.10;;
62654;SDS011;48717;55.556;37.816;2022-11-23T05:03:16;34.55;;;9.10;;
62654;SDS011;48717;55.556;37.816;2022-11-23T05:05:44;57.75;;;11.68;;
62654;SDS011;48717;55.556;37.816;2022-11-23T05:08:12;44.92;;;9.18;;
62654;SDS011;48717;55.556;37.816;2022-11-23T05:11:09;103.80;;;11.48;;
62654;SDS011;48717;55.556;37.816;2022-11-23T05:13:37;89.80;;;11.05;;
62654;SDS011;48717;55.556;37.816;2022-11-23T05:16:06;41.27;;;8.33;;
62654;SDS011;48717;55.556;37.816;2022-11-23T05:21:06;79.67;;;11.90;;
62654;SDS011;48717;55.556;37.816;2022-11-23T05:23:33;62.95;;;19.67;;
62654;SDS011;48717;55.556;37.816;2022-11-23T05:26:01;48.35;;;10.85;;
62654;SDS011;48717;55.556;37.816;2022-11-23T05:28:30;37.20;;;9.80;;
62654;SDS011;48717;55.556;37.816;2022-11-23T05:31:09;42.92;;;11.73;;
62654;SDS011;48717;55.556;37.816;2022-11-23T05:33:37;55.47;;;11.45;;
62654;SDS011;48717;55.556;37.816;2022-11-23T05:36:07;48.67;;;12.82;;
62654;SDS011;48717;55.556;37.816;2022-11-23T05:38:37;68.70;;;12.95;;
62654;SDS011;48717;55.556;37.816;2022-11-23T05:41:10;57.65;;;12.07;;
62654;SDS011;48717;55.556;37.816;2022-11-23T05:46:12;58.50;;;12.57;;
62654;SDS011;48717;55.556;37.816;2022-11-23T05:48:43;78.25;;;13.95;;
62654;SDS011;48717;55.556;37.816;2022-11-23T05:51:16;113.47;;;20.85;;
62654;SDS011;48717;55.556;37.816;2022-11-23T05:53:45;105.57;;;22.35;;
62654;SDS011;48717;55.556;37.816;2022-11-23T05:56:26;108.95;;;21.00;;
62654;SDS011;48717;55.556;37.816;2022-11-23T05:59:04;78.68;;;17.55;;
62654;SDS011;48717;55.556;37.816;2022-11-23T06:01:34;81.85;;;18.48;;
62654;SDS011;48717;55.556;37.816;2022-11-23T06:04:02;62.47;;;15.20;;
62654;SDS011;48717;55.556;37.816;2022-11-23T06:06:38;59.42;;;14.38;;
62654;SDS011;48717;55.556;37.816;2022-11-23T06:09:05;82.95;;;27.80;;
62654;SDS011;48717;55.556;37.816;2022-11-23T06:11:34;51.38;;;15.10;;
62654;SDS011;48717;55.556;37.816;2022-11-23T06:14:07;52.50;;;13.38;;
62654;SDS011;48717;55.556;37.816;2022-11-23T06:16:39;56.55;;;16.25;;
62654;SDS011;48717;55.556;37.816;2022-11-23T06:19:19;49.67;;;14.98;;
62654;SDS011;48717;55.556;37.816;2022-11-23T06:21:46;43.92;;;13.82;;
62654;SDS011;48717;55.556;37.816;2022-11-23T06:24:18;48.33;;;13.73;;
62654;SDS011;48717;55.556;37.816;2022-11-23T06:26:56;43.13;;;11.07;;
62654;SDS011;48717;55.556;37.816;2022-11-23T06:29:23;43.00;;;11.77;;
62654;SDS011;48717;55.556;37.816;2022-11-23T06:31:50;49.17;;;14.27;;
62654;SDS011;48717;55.556;37.816;2022-11-23T06:34:17;42.40;;;12.27;;
62654;SDS011;48717;55.556;37.816;2022-11-23T06:36:44;43.10;;;9.82;;
62654;SDS011;48717;55.556;37.816;2022-11-23T06:39:12;44.88;;;11.45;;
62654;SDS011;48717;55.556;37.816;2022-11-23T06:41:39;50.20;;;10.98;;
62654;SDS011;48717;55.556;37.816;2022-11-23T06:44:06;52.92;;;12.77;;
62654;SDS011;48717;55.556;37.816;2022-11-23T06:46:39;44.53;;;11.15;;
62654;SDS011;48717;55.556;37.816;2022-11-23T06:49:06;57.08;;;12.38;;
62654;SDS011;48717;55.556;37.816;2022-11-23T06:51:34;71.00;;;12.98;;
62654;SDS011;48717;55.556;37.816;2022-11-23T06:54:01;72.15;;;14.18;;
62654;SDS011;48717;55.556;37.816;2022-11-23T06:56:29;62.40;;;14.10;;
62654;SDS011;48717;55.556;37.816;2022-11-23T06:58:57;77.87;;;13.60;;
62654;SDS011;48717;55.556;37.816;2022-11-23T07:01:26;197.18;;;17.17;;
62654;SDS011;48717;55.556;37.816;2022-11-23T07:03:59;79.93;;;13.73;;
62654;SDS011;48717;55.556;37.816;2022-11-23T07:06:40;79.55;;;14.35;;
62654;SDS011;48717;55.556;37.816;2022-11-23T07:09:17;88.90;;;16.63;;
62654;SDS011;48717;55.556;37.816;2022-11-23T07:12:04;129.93;;;16.95;;
62654;SDS011;48717;55.556;37.816;2022-11-23T07:14:31;101.55;;;16.85;;
62654;SDS011;48717;55.556;37.816;2022-11-23T07:16:59;134.40;;;16.98;;
62654;SDS011;48717;55.556;37.816;2022-11-23T07:19:27;93.60;;;16.25;;
62654;SDS011;48717;55.556;37.816;2022-11-23T07:21:57;94.43;;;14.48;;
62654;SDS011;48717;55.556;37.816;2022-11-23T07:24:24;82.43;;;17.13;;
62654;SDS011;48717;55.556;37.816;2022-11-23T07:26:51;113.78;;;17.25;;
62654;SDS011;48717;55.556;37.816;2022-11-23T07:29:18;84.50;;;17.70;;
62654;SDS011;48717;55.556;37.816;2022-11-23T07:31:46;66.38;;;14.13;;
62654;SDS011;48717;55.556;37.816;2022-11-23T07:34:13;76.72;;;15.55;;
62654;SDS011;48717;55.556;37.816;2022-11-23T07:36:41;58.17;;;14.98;;
62654;SDS011;48717;55.556;37.816;2022-11-23T07:39:09;60.13;;;15.60;;
62654;SDS011;48717;55.556;37.816;2022-11-23T07:41:36;62.75;;;16.50;;
62654;SDS011;48717;55.556;37.816;2022-11-23T07:44:09;51.88;;;13.65;;
62654;SDS011;48717;55.556;37.816;2022-11-23T07:46:36;54.60;;;15.50;;
62654;SDS011;48717;55.556;37.816;2022-11-23T07:49:04;62.58;;;17.67;;
62654;SDS011;48717;55.556;37.816;2022-11-23T07:51:31;67.63;;;17.23;;
62654;SDS011;48717;55.556;37.816;2022-11-23T07:53:59;71.70;;;18.30;;
62654;SDS011;48717;55.556;37.816;2022-11-23T07:56:26;55.63;;;17.70;;
62654;SDS011;48717;55.556;37.816;2022-11-23T07:58:53;46.60;;;15.07;;
62654;SDS011;48717;55.556;37.816;2022-11-23T08:01:20;45.55;;;12.63;;
62654;SDS011;48717;55.556;37.816;2022-11-23T08:03:47;44.60;;;12.70;;
62654;SDS011;48717;55.556;37.816;2022-11-23T08:06:15;46.65;;;13.88;;
62654;SDS011;48717;55.556;37.816;2022-11-23T08:08:43;56.83;;;15.20;;
62654;SDS011;48717;55.556;37.816;2022-11-23T08:11:10;65.22;;;15.65;;
62654;SDS011;48717;55.556;37.816;2022-11-23T08:13:40;58.55;;;14.25;;
62654;SDS011;48717;55.556;37.816;2022-11-23T08:16:07;52.45;;;15.38;;
62654;SDS011;48717;55.556;37.816;2022-11-23T08:18:34;61.17;;;15.40;;
62654;SDS011;48717;55.556;37.816;2022-11-23T08:21:02;50.97;;;13.15;;
62654;SDS011;48717;55.556;37.816;2022-11-23T08:23:29;72.90;;;16.42;;
62654;SDS011;48717;55.556;37.816;2022-11-23T08:25:57;51.00;;;15.60;;
62654;SDS011;48717;55.556;37.816;2022-11-23T08:28:24;68.30;;;15.30;;
62654;SDS011;48717;55.556;37.816;2022-11-23T08:30:51;61.10;;;16.15;;
62654;SDS011;48717;55.556;37.816;2022-11-23T08:33:18;74.18;;;14.25;;
62654;SDS011;48717;55.556;37.816;2022-11-23T08:35:45;68.90;;;13.80;;
62654;SDS011;48717;55.556;37.816;2022-11-23T08:38:12;81.93;;;21.40;;
62654;SDS011;48717;55.556;37.816;2022-11-23T08:40:39;62.80;;;15.35;;
62654;SDS011;48717;55.556;37.816;2022-11-23T08:43:06;61.47;;;16.40;;
62654;SDS011;48717;55.556;37.816;2022-11-23T08:45:33;73.22;;;15.68;;
62654;SDS011;48717;55.556;37.816;2022-11-23T08:48:01;67.50;;;15.57;;
62654;SDS011;48717;55.556;37.816;2022-11-23T08:50:29;72.97;;;16.00;;
62654;SDS011;48717;55.556;37.816;2022-11-23T08:52:57;73.80;;;15.13;;
62654;SDS011;48717;55.556;37.816;2022-11-23T08:55:25;66.57;;;15.13;;
62654;SDS011;48717;55.556;37.816;2022-11-23T08:57:56;52.35;;;14.18;;
62654;SDS011;48717;55.556;37.816;2022-11-23T09:00:24;49.90;;;13.68;;
62654;SDS011;48717;55.556;37.816;2022-11-23T09:02:52;51.45;;;14.40;;
62654;SDS011;48717;55.556;37.816;2022-11-23T09:05:19;42.05;;;12.77;;
62654;SDS011;48717;55.556;37.816;2022-11-23T09:07:46;37.25;;;10.82;;
62654;SDS011;48717;55.556;37.816;2022-11-23T09:10:14;45.85;;;12.82;;
62654;SDS011;48717;55.556;37.816;2022-11-23T09:12:45;52.05;;;13.30;;
62654;SDS011;48717;55.556;37.816;2022-11-23T09:15:15;43.42;;;12.68;;
62654;SDS011;48717;55.556;37.816;2022-11-23T09:17:42;53.95;;;13.63;;
62654;SDS011;48717;55.556;37.816;2022-11-23T09:20:09;42.17;;;13.13;;
62654;SDS011;48717;55.556;37.816;2022-11-23T09:22:37;45.17;;;13.30;;
62654;SDS011;48717;55.556;37.816;2022-11-23T09:25:04;37.70;;;12.02;;
62654;SDS011;48717;55.556;37.816;2022-11-23T09:27:32;42.20;;;12.90;;
62654;SDS011;48717;55.556;37.816;2022-11-23T09:29:59;38.13;;;13.25;;
62654;SDS011;48717;55.556;37.816;2022-11-23T09:32:30;39.20;;;13.82;;
62654;SDS011;48717;55.556;37.816;2022-11-23T09:34:57;38.85;;;14.20;;
62654;SDS011;48717;55.556;37.816;2022-11-23T09:37:24;37.40;;;13.07;;
62654;SDS011;48717;55.556;37.816;2022-11-23T09:39:52;34.80;;;12.98;;
62654;SDS011;48717;55.556;37.816;2022-11-23T09:51:16;42.33;;;15.50;;
62654;SDS011;48717;55.556;37.816;2022-11-23T09:53:47;40.58;;;13.23;;
62654;SDS011;48717;55.556;37.816;2022-11-23T09:56:17;29.15;;;11.30;;
62654;SDS011;48717;55.556;37.816;2022-11-23T09:58:50;31.73;;;11.40;;
62654;SDS011;48717;55.556;37.816;2022-11-23T10:01:23;31.52;;;11.48;;
62654;SDS011;48717;55.556;37.816;2022-11-23T10:03:53;30.25;;;11.07;;
62654;SDS011;48717;55.556;37.816;2022-11-23T10:11:49;45.42;;;16.85;;
62654;SDS011;48717;55.556;37.816;2022-11-23T10:25:23;49.42;;;17.00;;
62654;SDS011;48717;55.556;37.816;2022-11-23T10:27:53;57.15;;;18.80;;
62654;SDS011;48717;55.556;37.816;2022-11-23T10:30:24;40.08;;;13.80;;
62654;SDS011;48717;55.556;37.816;2022-11-23T10:32:59;30.98;;;10.25;;
62654;SDS011;48717;55.556;37.816;2022-11-23T10:35:44;53.88;;;16.52;;
62654;SDS011;48717;55.556;37.816;2022-11-23T10:38:18;63.33;;;18.02;;
62654;SDS011;48717;55.556;37.816;2022-11-23T10:41:04;62.55;;;18.08;;
62654;SDS011;48717;55.556;37.816;2022-11-23T10:43:37;53.58;;;18.33;;
62654;SDS011;48717;55.556;37.816;2022-11-23T10:51:33;52.42;;;16.52;;
62654;SDS011;48717;55.556;37.816;2022-11-23T10:54:05;56.95;;;17.15;;
62654;SDS011;48717;55.556;37.816;2022-11-23T10:56:46;42.55;;;12.80;;
62654;SDS011;48717;55.556;37.816;2022-11-23T10:59:35;66.93;;;18.60;;
62654;SDS011;48717;55.556;37.816;2022-11-23T11:02:17;60.38;;;18.02;;
62654;SDS011;48717;55.556;37.816;2022-11-23T11:04:47;70.18;;;22.90;;
62654;SDS011;48717;55.556;37.816;2022-11-23T11:09:54;61.92;;;23.67;;
62654;SDS011;48717;55.556;37.816;2022-11-23T11:12:21;57.67;;;20.67;;
62654;SDS011;48717;55.556;37.816;2022-11-23T11:17:38;60.28;;;25.13;;
62654;SDS011;48717;55.556;37.816;2022-11-23T11:23:03;43.97;;;15.40;;
62654;SDS011;48717;55.556;37.816;2022-11-23T11:25:43;43.65;;;15.93;;
62654;SDS011;48717;55.556;37.816;2022-11-23T11:33:42;41.55;;;17.25;;
62654;SDS011;48717;55.556;37.816;2022-11-23T11:36:17;46.83;;;17.30;;
62654;SDS011;48717;55.556;37.816;2022-11-23T11:38:47;42.72;;;16.52;;
62654;SDS011;48717;55.556;37.816;2022-11-23T11:41:36;40.78;;;16.35;;
62654;SDS011;48717;55.556;37.816;2022-11-23T11:44:11;41.42;;;16.27;;
62654;SDS011;48717;55.556;37.816;2022-11-23T11:46:46;39.42;;;16.20;;
62654;SDS011;48717;55.556;37.816;2022-11-23T11:49:20;47.35;;;17.45;;
62654;SDS011;48717;55.556;37.816;2022-11-23T11:52:10;49.05;;;17.13;;
62654;SDS011;48717;55.556;37.816;2022-11-23T11:54:49;42.70;;;17.13;;
62654;SDS011;48717;55.556;37.816;2022-11-23T11:57:22;45.38;;;16.13;;
62654;SDS011;48717;55.556;37.816;2022-11-23T11:59:55;43.13;;;15.25;;
62654;SDS011;48717;55.556;37.816;2022-11-23T12:02:38;50.22;;;16.52;;
62654;SDS011;48717;55.556;37.816;2022-11-23T12:13:19;48.13;;;16.27;;
62654;SDS011;48717;55.556;37.816;2022-11-23T12:21:46;48.72;;;16.58;;
62654;SDS011;48717;55.556;37.816;2022-11-23T12:27:24;46.38;;;17.23;;
62654;SDS011;48717;55.556;37.816;2022-11-23T12:32:58;45.40;;;16.10;;
62654;SDS011;48717;55.556;37.816;2022-11-23T12:40:53;40.35;;;13.43;;
62654;SDS011;48717;55.556;37.816;2022-11-23T12:46:39;36.42;;;12.32;;
62654;SDS011;48717;55.556;37.816;2022-11-23T12:49:16;29.92;;;12.65;;
62654;SDS011;48717;55.556;37.816;2022-11-23T12:52:22;30.98;;;12.98;;
62654;SDS011;48717;55.556;37.816;2022-11-23T13:00:24;39.95;;;13.10;;
62654;SDS011;48717;55.556;37.816;2022-11-23T13:03:05;43.28;;;14.13;;
62654;SDS011;48717;55.556;37.816;2022-11-23T13:12:10;40.70;;;12.93;;
62654;SDS011;48717;55.556;37.816;2022-11-23T13:27:28;38.38;;;13.30;;
62654;SDS011;48717;55.556;37.816;2022-11-23T13:40:21;34.35;;;12.45;;
62654;SDS011;48717;55.556;37.816;2022-11-23T13:42:50;33.00;;;12.32;;
62654;SDS011;48717;55.556;37.816;2022-11-23T13:48:27;38.78;;;12.35;;
62654;SDS011;48717;55.556;37.816;2022-11-23T13:53:25;40.83;;;13.98;;
62654;SDS011;48717;55.556;37.816;2022-11-23T13:55:53;40.00;;;12.27;;
62654;SDS011;48717;55.556;37.816;2022-11-23T14:09:09;41.65;;;13.52;;
62654;SDS011;48717;55.556;37.816;2022-11-23T14:11:53;34.75;;;12.68;;
62654;SDS011;48717;55.556;37.816;2022-11-23T14:14:23;32.15;;;13.18;;
62654;SDS011;48717;55.556;37.816;2022-11-23T14:25:56;36.83;;;12.90;;
62654;SDS011;48717;55.556;37.816;2022-11-23T14:31:34;34.28;;;13.68;;
62654;SDS011;48717;55.556;37.816;2022-11-23T14:37:06;32.33;;;12.93;;
62654;SDS011;48717;55.556;37.816;2022-11-23T14:39:57;37.65;;;12.88;;
62654;SDS011;48717;55.556;37.816;2022-11-23T14:42:22;34.30;;;13.45;;
62654;SDS011;48717;55.556;37.816;2022-11-23T14:44:51;38.40;;;13.13;;
62654;SDS011;48717;55.556;37.816;2022-11-23T14:47:26;33.75;;;13.05;;
62654;SDS011;48717;55.556;37.816;2022-11-23T14:49:55;43.33;;;14.02;;
62654;SDS011;48717;55.556;37.816;2022-11-23T14:52:26;37.60;;;14.73;;
62654;SDS011;48717;55.556;37.816;2022-11-23T14:54:57;36.33;;;13.55;;
62654;SDS011;48717;55.556;37.816;2022-11-23T14:57:26;42.00;;;15.13;;
62654;SDS011;48717;55.556;37.816;2022-11-23T15:00:05;40.10;;;15.88;;
62654;SDS011;48717;55.556;37.816;2022-11-23T15:02:38;43.95;;;15.68;;
62654;SDS011;48717;55.556;37.816;2022-11-23T15:05:11;46.00;;;16.07;;
62654;SDS011;48717;55.556;37.816;2022-11-23T15:10:43;44.47;;;16.55;;
62654;SDS011;48717;55.556;37.816;2022-11-23T15:13:17;31.23;;;12.23;;
62654;SDS011;48717;55.556;37.816;2022-11-23T15:20:53;30.65;;;10.73;;
62654;SDS011;48717;55.556;37.816;2022-11-23T15:23:25;28.23;;;10.82;;
62654;SDS011;48717;55.556;37.816;2022-11-23T15:26:01;21.02;;;9.32;;
62654;SDS011;48717;55.556;37.816;2022-11-23T15:28:31;23.20;;;8.88;;
62654;SDS011;48717;55.556;37.816;2022-11-23T15:33:45;23.95;;;7.85;;
62654;SDS011;48717;55.556;37.816;2022-11-23T15:36:20;21.58;;;9.07;;
62654;SDS011;48717;55.556;37.816;2022-11-23T15:38:52;16.63;;;7.90;;
62654;SDS011;48717;55.556;37.816;2022-11-23T15:41:20;20.65;;;8.65;;
62654;SDS011;48717;55.556;37.816;2022-11-23T15:43:56;32.45;;;13.20;;
62654;SDS011;48717;55.556;37.816;2022-11-23T15:46:27;20.77;;;9.07;;
62654;SDS011;48717;55.556;37.816;2022-11-23T15:49:02;22.42;;;8.88;;
62654;SDS011;48717;55.556;37.816;2022-11-23T15:51:35;20.25;;;8.25;;
62654;SDS011;48717;55.556;37.816;2022-11-23T15:54:12;16.55;;;7.78;;
62654;SDS011;48717;55.556;37.816;2022-11-23T15:56:48;25.42;;;9.20;;
62654;SDS011;48717;55.556;37.816;2022-11-23T15:59:30;27.48;;;9.60;;
62654;SDS011;48717;55.556;37.816;2022-11-23T16:02:20;20.98;;;9.48;;
62654;SDS011;48717;55.556;37.816;2022-11-23T16:05:10;19.50;;;8.35;;
62654;SDS011;48717;55.556;37.816;2022-11-23T16:07:53;22.48;;;8.77;;
62654;SDS011;48717;55.556;37.816;2022-11-23T16:10:21;20.20;;;9.65;;
62654;SDS011;48717;55.556;37.816;2022-11-23T16:12:51;23.77;;;9.40;;
62654;SDS011;48717;55.556;37.816;2022-11-23T16:17:54;25.55;;;9.88;;
62654;SDS011;48717;55.556;37.816;2022-11-23T16:20:22;28.38;;;11.18;;
62654;SDS011;48717;55.556;37.816;2022-11-23T16:22:51;25.15;;;10.35;;
62654;SDS011;48717;55.556;37.816;2022-11-23T16:25:29;30.77;;;12.13;;
62654;SDS011;48717;55.556;37.816;2022-11-23T16:27:59;25.33;;;11.32;;
62654;SDS011;48717;55.556;37.816;2022-11-23T16:30:35;28.90;;;11.05;;
62654;SDS011;48717;55.556;37.816;2022-11-23T16:33:12;23.33;;;10.65;;
62654;SDS011;48717;55.556;37.816;2022-11-23T16:35:44;30.47;;;10.28;;
62654;SDS011;48717;55.556;37.816;2022-11-23T16:38:11;26.83;;;10.63;;
62654;SDS011;48717;55.556;37.816;2022-11-23T16:40:39;23.02;;;9.48;;
62654;SDS011;48717;55.556;37.816;2022-11-23T16:43:09;22.48;;;9.70;;
62654;SDS011;48717;55.556;37.816;2022-11-23T16:45:38;26.50;;;9.65;;
62654;SDS011;48717;55.556;37.816;2022-11-23T16:48:49;23.83;;;10.43;;
62654;SDS011;48717;55.556;37.816;2022-11-23T16:51:09;23.95;;;10.77;;
62654;SDS011;48717;55.556;37.816;2022-11-23T16:53:40;24.08;;;11.23;;
62654;SDS011;48717;55.556;37.816;2022-11-23T16:56:29;30.42;;;11.68;;
62654;SDS011;48717;55.556;37.816;2022-11-23T16:58:56;27.13;;;12.02;;
62654;SDS011;48717;55.556;37.816;2022-11-23T17:01:24;30.80;;;12.57;;
62654;SDS011;48717;55.556;37.816;2022-11-23T17:03:52;34.00;;;14.57;;
62654;SDS011;48717;55.556;37.816;2022-11-23T17:06:20;30.98;;;13.35;;
62654;SDS011;48717;55.556;37.816;2022-11-23T17:08:50;40.15;;;16.13;;
62654;SDS011;48717;55.556;37.816;2022-11-23T17:11:26;32.20;;;14.65;;
62654;SDS011;48717;55.556;37.816;2022-11-23T17:13:53;37.58;;;16.30;;
62654;SDS011;48717;55.556;37.816;2022-11-23T17:16:22;42.45;;;18.73;;
62654;SDS011;48717;55.556;37.816;2022-11-23T17:18:51;44.15;;;18.02;;